Leander, TX (78641)

2:25 AM CST on February 14, 2016 (GMT -0600)
Crystal Falls Mesa Oaks | | Change Station
CLOSE
Current Station
Personal Weather Station
Location: Leander, TX
Elevation: 1047 ft
Nearby Weather Stations

Elev 1047 ft 30.53 °N, 97.87 °W | Updated 2 seconds ago

Mostly Cloudy
Mostly Cloudy
57.4 °F
Feels Like 57.4 °F
N
4.5
Wind Variable Wind from South
Gusts 7.4 mph

Today
High -- | Low -- °F
--% Chance of Precip.
Yesterday
High -- | Low -- °F
Precip. -- in
Pressure 30.09 in
Visibility 10.0 miles
Clouds Scattered Clouds 700 ft
Overcast 2000 ft
Dew Point 56 °F
Humidity 94%
Rainfall 0.00 in
Snow Depth Not available.
7:13 AM 6:18 PM
Waxing Crescent, 39% visible
METAR KRYW 140815Z AUTO 19006KT 10SM SCT007 OVC020 14/12 A3009 RMK AO2 T01350122
Pressure 30.09 in
Visibility 10.0 miles
Clouds Scattered Clouds 700 ft
Overcast 2000 ft
Dew Point 56 °F
Humidity 94%
Rainfall 0.00 in
Snow Depth Not available.
7:13 AM 6:18 PM
Waxing Crescent, 39% visible
METAR KRYW 140815Z AUTO 19006KT 10SM SCT007 OVC020 14/12 A3009 RMK AO2 T01350122

10-Day Weather Forecast

Almanac

Astronomy

Feb. 14, 2016 Rise Set
Actual Time
Civil Twilight
Nautical Twilight
Astronomical Twilight
Moon
Length of Visible Light
Length of Day
Tomorrow will be .
, % of the Moon is Illuminated

Today's Extremes

State Highs State Lows

Community

WunderPhotos

Upload Photos

1,892,757 photos uploaded!

WunderBlog® & News

Nearby

Air Quality

  Air Quality AQ Index Pollutant
Not available.

Snow Depth

Station Depth Elevation

Earthquake Activity

City Distance Mag. Time & Date
Minimum magnitude displayed is 2.5.

Coastal Water Temperatures

Place Temperature

Stations

Nearby Weather Stations

Station Location Temp. Windchill Dew Point Humidity Wind Precip. Elev Updated Type
                   

Watches & Warnings

There are currently no watches in effect.